General Aviation Weather

Text Reports

Enter one or more of the following location identifiers separated by a space:

Zip Code, Four-Character ICAO or Three-Character IATA airport codes.

METAR - Aviation Routine Weather Report
MNMG - Managua,
Updated at 5:00 AM GMT on August 02, 2015 (11:00 PM CST):
METAR MNMG 020500Z 15006KT 9999 SCT020 SCT070 25/24 Q1011 A2986 NOSIG
TAF - Terminal Area Forecast
MNMG - Managua,
Updated at 5:00 AM GMT on August 02, 2015 (11:00 PM CST):
TAF MNMG 020315Z 0206/0306 VRB04KT 9000 -DZ SCT020 SCT070
     BECMG 0209/0212 9000 HZ FEW020 SCT070
     BECMG 0214/0221 07010KT 9999 FEW022 SCT300/=
TAF AMD PAFA 020323Z 0203/0306 24004KT P6SM -SHRA FEW010 BKN018 OVC060
     FM021200 VRB04KT 4SM BR BKN020 OVC050
     FM021800 VRB04KT P6SM BKN050=

Decoded:
ID: MNMG   Managua/Augusto, NK
REPORT TIME:  2  3:15
VALID TIME: 2 August AT 06:00Z to 3 August AT 06:00Z.
INITIAL WX
   WIND: VARIABLE AT 4
   VISIBILITY: 5.6 MILES
   WEATHER: -DZ
   CLOUDS: 20 SCT
   CLOUDS: 70 SCT
WX BECOMING FROM 09Z TO 12Z
   VISIBILITY: 5.6 MILES
   WEATHER: HZ
   CLOUDS: 20 FEW
   CLOUDS: 70 SCT
WX BECOMING FROM 14Z TO 21Z
   WINDS: 70 AT 10
   CLOUDS: 22 FEW
   CLOUDS: 300 SCT
   COMMENTS: /= 

PIREP - Pilot Weather Report
MNMG - Managua,
Updated at 5:00 AM GMT on August 02, 2015 (11:00 PM CST):
No PIREP is currently available for this location.
AIRMET - Airmens Meteorological Information
MNMG - Managua,
Updated at 5:00 AM GMT on August 02, 2015 (11:00 PM CST):
No AIRMET is currently available for this location.
SIGMET - Significant Meteorological Information
MNMG - Managua,
Updated at 5:00 AM GMT on August 02, 2015 (11:00 PM CST):
No SIGMET is currently available for this location.
NOTAM - Notice to Airmen
MNMG - Managua,
Updated at 5:00 AM GMT on August 02, 2015 (11:00 PM CST):
No NOTAM is currently available for this location.
Forecast Area
MNMG - Managua,
Updated at 5:00 AM GMT on August 02, 2015 (11:00 PM CST):
No NOTAM is currently available for this location.
Aviation Weather Maps